Time;durP1;ratioP1;P1;durP2;ratioP2;P2;SDS_P1;SDS_P2;PMS_P1;PMS_P2;Temp;Humidity;BMP_temperature;BMP_pressure;BME280_temperature;BME280_humidity;BME280_pressure;Samples;Min_cycle;Max_cycle;Signal;HPM_P1;HPM_P2
2023/09/05 00:02:01;;;;;;;5.10;3.30;;;;;19.40;99083.00;;;;4934799;29;20051;-68
2023/09/05 00:04:28;;;;;;;4.68;3.67;;;;;19.30;99085.00;;;;4934246;29;20047;-67
2023/09/05 00:06:56;;;;;;;3.30;2.95;;;;;19.30;99079.00;;;;4933498;29;20069;-69
2023/09/05 00:09:23;;;;;;;5.47;3.58;;;;;19.20;99086.00;;;;4933418;29;20048;-67
2023/09/05 00:11:50;;;;;;;8.40;3.85;;;;;19.20;99075.00;;;;4934652;29;20051;-69
2023/09/05 00:14:18;;;;;;;4.15;3.28;;;;;19.20;99069.00;;;;4934139;29;20058;-67
2023/09/05 00:16:45;;;;;;;5.32;3.35;;;;;19.20;99071.00;;;;4933431;29;20050;-68
2023/09/05 00:19:12;;;;;;;5.43;3.53;;;;;19.10;99065.00;;;;4934644;29;20618;-69
2023/09/05 00:21:39;;;;;;;5.15;3.35;;;;;19.20;99060.00;;;;4934655;29;20051;-68
2023/09/05 00:24:33;;;;;;;4.20;3.47;;;;;19.20;99069.00;;;;4933933;29;20044;-67
2023/09/05 00:27:00;;;;;;;;;;;;;19.20;99062.00;;;;4934906;29;20440;-67
2023/09/05 00:29:29;;;;;;;3.92;3.25;;;;;19.20;99065.00;;;;4934573;29;20392;-68
2023/09/05 00:31:59;;;;;;;3.72;3.25;;;;;19.20;99064.00;;;;4934487;29;20039;-69
2023/09/05 00:34:27;;;;;;;4.90;3.53;;;;;19.30;99055.00;;;;4917016;29;20052;-68
2023/09/05 00:36:54;;;;;;;3.90;3.03;;;;;19.30;99059.00;;;;4933342;29;20043;-68
2023/09/05 00:39:20;;;;;;;3.92;3.30;;;;;19.40;99062.00;;;;4934384;29;20044;-68
2023/09/05 00:41:47;;;;;;;3.70;3.30;;;;;19.40;99061.00;;;;4933190;29;20115;-68
2023/09/05 00:44:14;;;;;;;6.45;4.03;;;;;19.50;99066.00;;;;4932542;29;20048;-68
2023/09/05 00:46:42;;;;;;;6.95;3.35;;;;;19.50;99068.00;;;;4935726;29;20044;-68
2023/09/05 00:49:10;;;;;;;6.25;3.60;;;;;19.50;99058.00;;;;4920897;29;20048;-69
2023/09/05 00:51:37;;;;;;;3.63;2.85;;;;;19.50;99060.00;;;;4936555;29;20060;-68
2023/09/05 00:54:06;;;;;;;4.32;3.35;;;;;19.50;99050.00;;;;4935808;29;20055;-68
2023/09/05 00:56:35;;;;;;;5.07;3.47;;;;;19.50;99049.00;;;;4937724;29;20048;-69
2023/09/05 00:59:02;;;;;;;3.50;3.20;;;;;19.50;99048.00;;;;4936707;29;20047;-68
2023/09/05 01:01:29;;;;;;;4.70;3.60;;;;;19.50;99053.00;;;;4936409;29;20056;-69
2023/09/05 01:03:57;;;;;;;4.53;3.50;;;;;19.50;99044.00;;;;4936977;29;20118;-68
2023/09/05 01:06:31;;;;;;;6.40;3.72;;;;;19.50;99053.00;;;;4937730;29;20051;-68
2023/09/05 01:09:10;;;;;;;3.42;3.13;;;;;19.50;99053.00;;;;4936251;29;20411;-69
2023/09/05 01:11:37;;;;;;;4.18;3.38;;;;;19.40;99041.00;;;;4937470;29;20051;-68
2023/09/05 01:14:03;;;;;;;3.50;3.00;;;;;19.40;99057.00;;;;4935692;29;20062;-68
2023/09/05 01:16:30;;;;;;;6.18;3.60;;;;;19.40;99055.00;;;;4935955;29;20151;-68
2023/09/05 01:18:57;;;;;;;4.53;3.42;;;;;19.40;99050.00;;;;4936265;29;20050;-68
2023/09/05 01:21:31;;;;;;;4.18;3.65;;;;;19.30;99040.00;;;;4936069;29;20055;-69
2023/09/05 01:24:24;;;;;;;3.70;3.30;;;;;19.30;99040.00;;;;4936695;29;20047;-68
2023/09/05 01:26:52;;;;;;;3.28;2.97;;;;;19.20;99039.00;;;;4934032;29;20054;-68
2023/09/05 01:29:25;;;;;;;3.45;3.05;;;;;19.20;99033.00;;;;4935995;29;20123;-67
2023/09/05 01:31:53;;;;;;;;;;;;;19.10;99027.00;;;;4936532;29;20508;-68
2023/09/05 01:34:20;;;;;;;3.95;2.65;;;;;19.10;99033.00;;;;4936435;29;19927;-69
2023/09/05 01:36:46;;;;;;;5.13;3.28;;;;;19.00;99038.00;;;;4935891;29;20047;-67
2023/09/05 01:39:13;;;;;;;3.75;3.33;;;;;19.00;99034.00;;;;4919906;29;20052;-67
2023/09/05 01:41:40;;;;;;;4.75;3.55;;;;;19.00;99037.00;;;;4935701;29;20423;-69
2023/09/05 01:44:06;;;;;;;4.40;3.22;;;;;19.00;99032.00;;;;4935013;29;20477;-67
2023/09/05 01:46:33;;;;;;;4.47;3.30;;;;;19.00;99028.00;;;;4919940;29;20058;-68
2023/09/05 01:48:59;;;;;;;5.10;3.15;;;;;19.00;99030.00;;;;4919818;29;20527;-67
2023/09/05 01:51:26;;;;;;;6.38;3.45;;;;;19.00;99028.00;;;;4935555;29;20543;-68
2023/09/05 01:53:52;;;;;;;4.07;3.60;;;;;19.00;99035.00;;;;4934739;29;20044;-67
2023/09/05 01:56:19;;;;;;;6.45;4.10;;;;;18.90;99033.00;;;;4936787;29;20054;-67
2023/09/05 01:58:45;;;;;;;4.15;3.40;;;;;18.90;99027.00;;;;4918761;29;20046;-67
2023/09/05 02:01:12;;;;;;;4.45;3.20;;;;;18.80;99029.00;;;;4935303;29;20067;-67
2023/09/05 02:03:38;;;;;;;3.92;3.22;;;;;18.80;99032.00;;;;4934827;29;20052;-68
2023/09/05 02:06:05;;;;;;;7.82;3.50;;;;;18.80;99026.00;;;;4936530;29;20043;-67
2023/09/05 02:08:34;;;;;;;6.60;3.60;;;;;18.70;99020.00;;;;4936476;29;20046;-67
2023/09/05 02:11:01;;;;;;;5.32;3.35;;;;;18.60;99014.00;;;;4936460;29;20058;-67
2023/09/05 02:13:31;;;;;;;5.10;3.85;;;;;18.60;99020.00;;;;4935894;29;20046;-67
2023/09/05 02:15:58;;;;;;;3.65;3.30;;;;;18.70;99019.00;;;;4935905;29;20043;-67
2023/09/05 02:18:24;;;;;;;5.28;3.55;;;;;18.70;99018.00;;;;4935045;29;20103;-66
2023/09/05 02:20:57;;;;;;;4.75;3.17;;;;;18.60;99027.00;;;;4919234;29;20047;-67
2023/09/05 02:23:24;;;;;;;5.40;3.67;;;;;18.60;99025.00;;;;4934810;29;20048;-68
2023/09/05 02:25:58;;;;;;;4.07;3.10;;;;;18.60;99031.00;;;;4935871;29;20055;-67
2023/09/05 02:28:25;;;;;;;;;;;;;18.60;99035.00;;;;4936482;29;20047;-67
2023/09/05 02:30:52;;;;;;;3.05;2.75;;;;;18.60;99032.00;;;;4934965;29;19922;-67
2023/09/05 02:33:19;;;;;;;7.07;3.30;;;;;18.60;99033.00;;;;4919030;29;20063;-67
2023/09/05 02:35:48;;;;;;;4.90;3.35;;;;;18.60;99030.00;;;;4935555;29;20044;-67
2023/09/05 02:38:15;;;;;;;8.15;3.45;;;;;18.60;99037.00;;;;4936004;29;20527;-67
2023/09/05 02:40:43;;;;;;;4.80;3.58;;;;;18.60;99037.00;;;;4934761;29;20047;-68
2023/09/05 02:43:10;;;;;;;5.43;3.75;;;;;18.60;99037.00;;;;4934506;29;20523;-67
2023/09/05 02:45:36;;;;;;;4.20;3.22;;;;;18.60;99034.00;;;;4933907;29;20056;-66
2023/09/05 02:48:04;;;;;;;4.47;3.42;;;;;18.60;99029.00;;;;4934640;29;20055;-66
2023/09/05 02:50:31;;;;;;;6.53;3.55;;;;;18.50;99032.00;;;;4935802;29;20146;-67
2023/09/05 02:52:57;;;;;;;3.53;3.20;;;;;18.50;99028.00;;;;4935647;29;20047;-67
2023/09/05 02:55:24;;;;;;;3.45;2.80;;;;;18.50;99031.00;;;;4917871;29;20055;-68
2023/09/05 02:57:51;;;;;;;3.33;3.03;;;;;18.50;99026.00;;;;4934299;29;20064;-66
2023/09/05 03:00:19;;;;;;;6.90;3.65;;;;;18.50;99023.00;;;;4934221;29;20055;-67
2023/09/05 03:02:49;;;;;;;4.40;3.55;;;;;18.50;99017.00;;;;4934220;29;20492;-67
2023/09/05 03:05:16;;;;;;;4.35;3.13;;;;;18.50;99007.00;;;;4933920;29;20142;-67
2023/09/05 03:07:42;;;;;;;4.40;3.38;;;;;18.50;99007.00;;;;4934000;29;20047;-68
2023/09/05 03:10:09;;;;;;;4.32;3.30;;;;;18.50;99006.00;;;;4934118;29;20048;-67
2023/09/05 03:12:36;;;;;;;3.92;2.97;;;;;18.40;99011.00;;;;4934092;29;20142;-66
2023/09/05 03:15:03;;;;;;;4.10;3.10;;;;;18.40;99001.00;;;;4933497;29;20104;-67
2023/09/05 03:17:29;;;;;;;6.47;3.38;;;;;18.40;98996.00;;;;4935121;29;20047;-67
2023/09/05 03:19:56;;;;;;;4.47;3.03;;;;;18.40;98996.00;;;;4934021;29;20052;-66
2023/09/05 03:22:22;;;;;;;11.30;8.15;;;;;18.40;99005.00;;;;4934061;29;20143;-66
2023/09/05 03:24:49;;;;;;;3.90;3.08;;;;;18.40;99004.00;;;;4933367;29;20059;-67
2023/09/05 03:27:15;;;;;;;7.07;4.00;;;;;18.40;99007.00;;;;4934032;29;20052;-67
2023/09/05 03:29:42;;;;;;;5.00;2.80;;;;;18.50;99004.00;;;;4918166;29;20151;-66
2023/09/05 03:32:09;;;;;;;4.95;3.50;;;;;18.50;99002.00;;;;4933921;29;20078;-66
2023/09/05 03:34:35;;;;;;;5.65;4.00;;;;;18.50;99006.00;;;;4933425;29;20062;-68
2023/09/05 03:37:02;;;;;;;6.03;3.75;;;;;18.50;99008.00;;;;4933948;29;20048;-67
2023/09/05 03:39:28;;;;;;;4.32;3.10;;;;;18.50;99005.00;;;;4918199;29;20040;-68
2023/09/05 03:41:55;;;;;;;5.35;3.53;;;;;18.50;99001.00;;;;4933802;29;20500;-67
2023/09/05 03:44:22;;;;;;;5.28;3.53;;;;;18.50;99004.00;;;;4934502;29;20046;-67
2023/09/05 03:46:49;;;;;;;6.00;3.55;;;;;18.40;98996.00;;;;4934242;29;20408;-67
2023/09/05 03:49:15;;;;;;;4.07;3.45;;;;;18.40;98999.00;;;;4917937;29;20044;-67
2023/09/05 03:51:42;;;;;;;3.88;2.60;;;;;18.40;99005.00;;;;4935135;29;20050;-68
2023/09/05 03:54:09;;;;;;;6.28;3.05;;;;;18.50;98997.00;;;;4917323;29;20424;-67
2023/09/05 03:56:36;;;;;;;3.88;3.33;;;;;18.40;98999.00;;;;4933704;29;20143;-67
2023/09/05 03:59:02;;;;;;;4.63;3.03;;;;;18.40;99000.00;;;;4933719;29;20039;-68
2023/09/05 04:01:29;;;;;;;4.07;3.03;;;;;18.40;98990.00;;;;4933478;29;20054;-67
2023/09/05 04:03:55;;;;;;;5.90;3.65;;;;;18.40;98987.00;;;;4948844;28;20508;-67
2023/09/05 04:06:22;;;;;;;4.32;3.15;;;;;18.30;98991.00;;;;4933509;29;20523;-68
2023/09/05 04:08:49;;;;;;;3.55;3.15;;;;;18.30;98992.00;;;;4934799;29;20099;-68
2023/09/05 04:11:16;;;;;;;3.90;2.80;;;;;18.30;98989.00;;;;4934834;29;20051;-67
2023/09/05 04:13:42;;;;;;;3.00;2.70;;;;;18.30;98989.00;;;;4948632;28;20744;-67
2023/09/05 04:16:08;;;;;;;3.28;2.78;;;;;18.30;98987.00;;;;4933323;29;20847;-67
2023/09/05 04:18:35;;;;;;;3.72;3.13;;;;;18.40;98993.00;;;;4934689;29;20039;-67
2023/09/05 04:21:02;;;;;;;6.32;4.97;;;;;18.40;99000.00;;;;4933826;29;20058;-67
2023/09/05 04:23:28;;;;;;;3.97;2.83;;;;;18.40;98989.00;;;;4937880;29;20067;-66
2023/09/05 04:25:59;;;;;;;5.63;3.63;;;;;18.40;99001.00;;;;4936943;29;20054;-67
2023/09/05 04:28:28;;;;;;;4.85;3.53;;;;;18.40;99002.00;;;;4936919;29;20103;-67
2023/09/05 04:30:55;;;;;;;7.28;3.05;;;;;18.50;99002.00;;;;4921304;29;20051;-67
2023/09/05 04:33:24;;;;;;;4.22;3.10;;;;;18.50;98996.00;;;;4921230;29;20059;-67
2023/09/05 04:35:52;;;;;;;4.70;3.65;;;;;18.50;99004.00;;;;4937033;29;20086;-67
2023/09/05 04:38:20;;;;;;;4.68;3.80;;;;;18.50;99005.00;;;;4936843;29;20050;-67
2023/09/05 04:40:47;;;;;;;3.67;3.33;;;;;18.50;99008.00;;;;4938041;29;20056;-67
2023/09/05 04:43:13;;;;;;;5.57;3.25;;;;;18.50;99006.00;;;;4937106;29;20055;-68
2023/09/05 04:45:40;;;;;;;4.10;2.90;;;;;18.60;99009.00;;;;4937377;29;20062;-67
2023/09/05 04:48:07;;;;;;;4.30;2.53;;;;;18.60;99010.00;;;;4937974;29;20438;-68
2023/09/05 04:50:33;;;;;;;6.05;3.33;;;;;18.60;99014.00;;;;4936955;29;20074;-67
2023/09/05 04:53:00;;;;;;;4.28;2.88;;;;;18.60;99018.00;;;;4938032;29;20044;-68
2023/09/05 04:55:27;;;;;;;2.83;2.55;;;;;18.60;99012.00;;;;4920221;29;20547;-68
2023/09/05 04:57:53;;;;;;;5.07;2.70;;;;;18.70;99017.00;;;;4937798;29;20154;-67
2023/09/05 05:00:20;;;;;;;3.08;2.38;;;;;18.70;99017.00;;;;4937744;29;20050;-68
2023/09/05 05:02:46;;;;;;;3.92;3.22;;;;;18.70;99028.00;;;;4937666;29;20496;-68
2023/09/05 05:05:13;;;;;;;3.50;2.90;;;;;18.70;99025.00;;;;4937016;29;20157;-68
2023/09/05 05:07:40;;;;;;;4.00;2.63;;;;;18.80;99025.00;;;;4936243;29;20054;-68
2023/09/05 05:10:08;;;;;;;6.13;3.03;;;;;18.80;99028.00;;;;4936703;29;20403;-68
2023/09/05 05:12:34;;;;;;;5.30;4.00;;;;;18.90;99021.00;;;;4937603;29;20056;-69
2023/09/05 05:15:01;;;;;;;7.93;3.83;;;;;19.00;99030.00;;;;4935793;29;20416;-66
2023/09/05 05:17:27;;;;;;;6.15;4.18;;;;;19.00;99033.00;;;;4937437;29;20051;-67
2023/09/05 05:19:55;;;;;;;5.40;3.72;;;;;19.00;99038.00;;;;4937734;29;20122;-67
2023/09/05 05:22:21;;;;;;;5.72;4.00;;;;;19.00;99040.00;;;;4920744;29;20054;-67
2023/09/05 05:24:48;;;;;;;5.90;3.60;;;;;18.90;99038.00;;;;4936941;29;20055;-67
2023/09/05 05:27:15;;;;;;;5.18;3.25;;;;;18.90;99035.00;;;;4936085;29;20051;-67
2023/09/05 05:29:41;;;;;;;3.75;2.97;;;;;19.00;99034.00;;;;4935892;29;20519;-67
2023/09/05 05:32:08;;;;;;;6.88;3.35;;;;;19.00;99036.00;;;;4919940;29;20404;-67
2023/09/05 05:34:34;;;;;;;3.70;3.03;;;;;19.10;99036.00;;;;4935380;29;20043;-67
2023/09/05 05:37:01;;;;;;;4.00;3.17;;;;;19.10;99025.00;;;;4937297;29;20055;-67
2023/09/05 05:39:27;;;;;;;5.95;4.60;;;;;19.20;99035.00;;;;4935928;29;20047;-69
2023/09/05 05:41:54;;;;;;;8.45;4.43;;;;;19.20;99031.00;;;;4936409;29;20057;-67
2023/09/05 05:44:20;;;;;;;3.78;3.10;;;;;19.20;99035.00;;;;4936638;29;20047;-67
2023/09/05 05:46:47;;;;;;;6.80;3.42;;;;;19.20;99040.00;;;;4936923;29;20061;-67
2023/09/05 05:49:13;;;;;;;3.85;2.72;;;;;19.30;99037.00;;;;4935661;29;20048;-67
2023/09/05 05:51:40;;;;;;;6.00;2.90;;;;;19.40;99040.00;;;;4936770;29;20044;-67
2023/09/05 05:54:07;;;;;;;3.70;3.20;;;;;19.40;99037.00;;;;4934939;29;20116;-67
2023/09/05 05:56:34;;;;;;;4.47;2.75;;;;;19.40;99038.00;;;;4936719;29;20044;-67
2023/09/05 05:59:01;;;;;;;4.65;2.65;;;;;19.40;99038.00;;;;4935370;29;20070;-68
2023/09/05 06:01:28;;;;;;;2.75;2.45;;;;;19.50;99044.00;;;;4935382;29;20059;-68
2023/09/05 06:03:55;;;;;;;3.78;2.90;;;;;19.50;99044.00;;;;4934681;29;20059;-69
2023/09/05 06:06:21;;;;;;;3.15;2.63;;;;;19.60;99047.00;;;;4936610;29;20044;-68
2023/09/05 06:08:48;;;;;;;6.03;2.83;;;;;19.70;99054.00;;;;4935199;29;20055;-68
2023/09/05 06:11:14;;;;;;;5.97;2.92;;;;;19.80;99056.00;;;;4919532;29;20055;-68
2023/09/05 06:13:41;;;;;;;5.38;3.15;;;;;19.90;99059.00;;;;4935737;29;20054;-68
2023/09/05 06:16:08;;;;;;;4.47;2.90;;;;;20.10;99062.00;;;;4936278;29;20040;-69
2023/09/05 06:18:34;;;;;;;3.80;2.60;;;;;20.10;99063.00;;;;4919441;29;20139;-68
2023/09/05 06:21:01;;;;;;;3.20;2.45;;;;;20.20;99059.00;;;;4936505;29;20044;-69
2023/09/05 06:23:27;;;;;;;4.03;2.75;;;;;20.30;99061.00;;;;4934589;29;20047;-67
2023/09/05 06:25:54;;;;;;;2.80;2.53;;;;;20.40;99064.00;;;;4936394;29;20126;-67
2023/09/05 06:28:20;;;;;;;3.92;2.65;;;;;20.50;99056.00;;;;4936411;29;20043;-68
2023/09/05 06:30:47;;;;;;;3.53;2.63;;;;;20.50;99055.00;;;;4936347;29;20052;-67
2023/09/05 06:33:14;;;;;;;3.78;2.55;;;;;20.60;99058.00;;;;4936665;29;20074;-68
2023/09/05 06:35:41;;;;;;;3.78;2.80;;;;;20.70;99055.00;;;;4936133;29;20506;-65
2023/09/05 06:38:08;;;;;;;4.30;2.20;;;;;20.80;99051.00;;;;4936654;29;20044;-70
2023/09/05 06:40:34;;;;;;;2.85;2.40;;;;;20.90;99057.00;;;;4937154;29;20051;-71
2023/09/05 06:43:01;;;;;;;4.53;2.80;;;;;21.00;99054.00;;;;4935972;29;20489;-71
2023/09/05 06:45:27;;;;;;;3.15;2.67;;;;;21.00;99060.00;;;;4919113;29;20058;-71
2023/09/05 06:47:54;;;;;;;2.70;2.28;;;;;21.10;99065.00;;;;4936693;29;20044;-71
2023/09/05 06:50:21;;;;;;;4.53;2.67;;;;;21.20;99063.00;;;;4936338;29;20044;-72
2023/09/05 06:52:48;;;;;;;3.35;2.60;;;;;21.20;99065.00;;;;4936234;29;20118;-71
2023/09/05 06:55:15;;;;;;;5.60;2.65;;;;;21.30;99072.00;;;;4934477;29;20047;-71
2023/09/05 06:57:42;;;;;;;3.60;2.75;;;;;21.40;99070.00;;;;4935095;29;20098;-74
2023/09/05 07:00:10;;;;;;;3.97;2.65;;;;;21.40;99071.00;;;;4934735;29;20162;-69
2023/09/05 07:02:36;;;;;;;2.70;2.33;;;;;21.50;99079.00;;;;4935007;29;20063;-68
2023/09/05 07:05:03;;;;;;;3.42;2.50;;;;;21.60;99082.00;;;;4935228;29;20417;-67
2023/09/05 07:07:30;;;;;;;3.88;2.38;;;;;21.80;99082.00;;;;4935440;29;20102;-67
2023/09/05 07:09:56;;;;;;;5.00;3.22;;;;;21.80;99088.00;;;;4934054;29;20080;-69
2023/09/05 07:12:23;;;;;;;6.80;2.65;;;;;21.90;99083.00;;;;4934360;29;20413;-69
2023/09/05 07:14:50;;;;;;;3.40;2.50;;;;;21.80;99083.00;;;;4933415;29;20058;-68
2023/09/05 07:17:17;;;;;;;3.17;2.28;;;;;21.90;99088.00;;;;4935044;29;20067;-68
2023/09/05 07:19:44;;;;;;;2.25;1.98;;;;;22.00;99091.00;;;;4934279;29;20051;-68
2023/09/05 07:22:10;;;;;;;4.78;3.38;;;;;22.10;99090.00;;;;4935723;29;20054;-68
2023/09/05 07:24:37;;;;;;;4.25;3.67;;;;;22.10;99093.00;;;;4934610;29;20047;-70
2023/09/05 07:27:04;;;;;;;3.75;3.28;;;;;22.20;99088.00;;;;4933907;29;20055;-68
2023/09/05 07:29:32;;;;;;;2.90;2.33;;;;;22.20;99085.00;;;;4933690;29;20556;-69
2023/09/05 07:31:59;;;;;;;3.88;2.65;;;;;22.30;99085.00;;;;4935219;29;20059;-68
2023/09/05 07:34:26;;;;;;;2.75;2.50;;;;;22.20;99078.00;;;;4917955;29;20058;-66
2023/09/05 07:36:54;;;;;;;5.75;3.17;;;;;22.30;99084.00;;;;4934214;29;20062;-67
2023/09/05 07:39:21;;;;;;;3.17;2.63;;;;;22.40;99074.00;;;;4935473;29;20139;-68
2023/09/05 07:41:47;;;;;;;7.28;2.78;;;;;22.40;99082.00;;;;4935337;29;20052;-69
2023/09/05 07:44:14;;;;;;;3.15;2.53;;;;;22.60;99074.00;;;;4934649;29;20069;-68
2023/09/05 07:46:40;;;;;;;3.38;2.40;;;;;22.60;99078.00;;;;4933844;29;20090;-68
2023/09/05 07:49:07;;;;;;;2.92;2.53;;;;;22.60;99081.00;;;;4934833;29;20039;-68
2023/09/05 07:51:34;;;;;;;2.78;2.08;;;;;22.60;99082.00;;;;4935192;29;20063;-69
2023/09/05 07:54:10;;;;;;;2.65;2.05;;;;;22.70;99092.00;;;;4934387;29;20044;-68
2023/09/05 07:56:37;;;;;;;2.92;2.33;;;;;22.80;99084.00;;;;4935392;29;20894;-69
2023/09/05 07:59:05;;;;;;;3.45;2.35;;;;;22.90;99089.00;;;;4938881;29;20075;-70
2023/09/05 08:01:33;;;;;;;5.15;1.90;;;;;23.00;99091.00;;;;4939041;29;20054;-69
2023/09/05 08:03:59;;;;;;;2.20;2.00;;;;;23.10;99092.00;;;;4937322;29;20066;-70
2023/09/05 08:06:26;;;;;;;2.17;1.98;;;;;23.10;99090.00;;;;4937560;29;20048;-70
2023/09/05 08:08:52;;;;;;;5.13;2.20;;;;;23.10;99098.00;;;;4938822;29;20135;-70
2023/09/05 08:11:19;;;;;;;3.00;1.80;;;;;23.20;99096.00;;;;4938850;29;20048;-69
2023/09/05 08:13:45;;;;;;;2.85;2.40;;;;;23.20;99094.00;;;;4937036;29;20134;-69
2023/09/05 08:16:13;;;;;;;3.00;1.92;;;;;23.30;99089.00;;;;4938528;29;20126;-71
2023/09/05 08:18:40;;;;;;;2.90;2.15;;;;;23.50;99090.00;;;;4937697;29;20050;-71
2023/09/05 08:21:07;;;;;;;3.30;2.20;;;;;23.50;99089.00;;;;4938545;29;20053;-69
2023/09/05 08:23:33;;;;;;;2.70;2.20;;;;;23.60;99087.00;;;;4938163;29;20048;-69
2023/09/05 08:26:00;;;;;;;2.42;2.13;;;;;23.60;99089.00;;;;4939324;29;20051;-69
2023/09/05 08:28:32;;;;;;;2.20;2.00;;;;;23.70;99088.00;;;;4937984;29;20039;-68
2023/09/05 08:31:01;;;;;;;3.95;2.22;;;;;23.70;99090.00;;;;4938693;29;20075;-69
2023/09/05 08:33:44;;;;;;;2.75;1.85;;;;;23.70;99096.00;;;;4938351;29;20066;-69
2023/09/05 08:36:11;;;;;;;2.55;2.17;;;;;23.70;99089.00;;;;4921742;29;20054;-69
2023/09/05 08:38:37;;;;;;;2.85;2.00;;;;;23.90;99089.00;;;;4938746;29;20130;-69
2023/09/05 08:41:06;;;;;;;2.83;2.42;;;;;24.00;99089.00;;;;4938614;29;20501;-69
2023/09/05 08:43:34;;;;;;;2.22;2.03;;;;;24.10;99095.00;;;;4936789;29;20051;-69
2023/09/05 08:46:02;;;;;;;3.63;2.13;;;;;24.20;99092.00;;;;4936951;29;20075;-68
2023/09/05 08:48:30;;;;;;;4.30;2.22;;;;;24.20;99083.00;;;;4938101;29;20055;-69
2023/09/05 08:51:18;;;;;;;2.38;2.00;;;;;24.40;99089.00;;;;4938144;29;20103;-68
2023/09/05 08:53:53;;;;;;;3.05;1.98;;;;;24.40;99081.00;;;;4937488;29;20047;-69
2023/09/05 08:56:20;;;;;;;2.80;2.15;;;;;24.40;99087.00;;;;4938062;29;20051;-68
2023/09/05 08:58:48;;;;;;;3.15;1.88;;;;;24.40;99076.00;;;;4938048;29;20052;-67
2023/09/05 09:01:16;;;;;;;2.45;2.25;;;;;24.40;99079.00;;;;4937743;29;20049;-68
2023/09/05 09:03:43;;;;;;;3.35;1.85;;;;;24.60;99076.00;;;;4936150;29;20051;-68
2023/09/05 09:06:10;;;;;;;2.22;1.88;;;;;24.70;99072.00;;;;4937921;29;20047;-68
2023/09/05 09:08:43;;;;;;;3.92;2.60;;;;;24.80;99072.00;;;;4937135;29;20071;-67
2023/09/05 09:11:11;;;;;;;2.25;2.05;;;;;24.70;99077.00;;;;4937505;29;20128;-68
2023/09/05 09:13:38;;;;;;;2.25;2.05;;;;;24.80;99079.00;;;;4936996;29;20412;-67
2023/09/05 09:16:06;;;;;;;3.17;1.80;;;;;24.80;99085.00;;;;4937668;29;20408;-67
2023/09/05 09:18:33;;;;;;;2.60;2.10;;;;;24.90;99082.00;;;;4937741;29;20143;-68
2023/09/05 09:21:04;;;;;;;2.58;2.00;;;;;25.00;99079.00;;;;4937642;29;20123;-67
2023/09/05 09:23:35;;;;;;;3.17;2.10;;;;;25.20;99086.00;;;;4936801;29;20063;-68
2023/09/05 09:26:03;;;;;;;3.42;1.80;;;;;25.10;99074.00;;;;4936361;29;20131;-68
2023/09/05 09:28:32;;;;;;;2.55;2.00;;;;;25.10;99076.00;;;;4936213;29;20130;-68
2023/09/05 09:31:05;;;;;;;5.18;1.80;;;;;25.10;99080.00;;;;4935897;29;20044;-70
2023/09/05 09:33:33;;;;;;;2.35;2.08;;;;;25.30;99082.00;;;;4935521;29;20134;-68
2023/09/05 09:35:59;;;;;;;2.30;1.98;;;;;25.40;99079.00;;;;4937231;29;20055;-68
2023/09/05 09:38:27;;;;;;;2.47;1.52;;;;;25.50;99082.00;;;;4935918;29;20061;-68
2023/09/05 09:40:55;;;;;;;2.95;2.05;;;;;25.40;99079.00;;;;4937021;29;20404;-68
2023/09/05 09:43:21;;;;;;;2.50;2.10;;;;;25.40;99075.00;;;;4935718;29;20056;-67
2023/09/05 09:45:48;;;;;;;2.47;1.95;;;;;25.50;99070.00;;;;4936396;29;20400;-67
2023/09/05 09:48:20;;;;;;;3.70;2.00;;;;;25.50;99070.00;;;;4936890;29;20424;-67
2023/09/05 09:50:48;;;;;;;3.40;2.30;;;;;25.60;99067.00;;;;4935662;29;20067;-67
2023/09/05 09:53:21;;;;;;;2.28;1.80;;;;;25.70;99064.00;;;;4935570;29;20107;-68
2023/09/05 09:55:51;;;;;;;2.53;1.70;;;;;25.80;99068.00;;;;4935246;29;20070;-68
2023/09/05 09:58:22;;;;;;;5.38;1.90;;;;;25.90;99067.00;;;;4935600;29;20054;-68
2023/09/05 10:00:50;;;;;;;2.22;1.85;;;;;26.00;99070.00;;;;4935327;29;20051;-68
2023/09/05 10:03:18;;;;;;;2.40;1.80;;;;;26.00;99064.00;;;;4936510;29;20052;-68
2023/09/05 10:05:45;;;;;;;3.58;1.80;;;;;26.10;99068.00;;;;4936097;29;20059;-68
2023/09/05 10:08:12;;;;;;;2.67;1.67;;;;;26.00;99062.00;;;;4935996;29;20050;-68
2023/09/05 10:10:40;;;;;;;1.80;1.55;;;;;26.20;99064.00;;;;4919942;29;20131;-68
2023/09/05 10:13:11;;;;;;;2.22;1.90;;;;;26.30;99070.00;;;;4935205;29;20138;-68
2023/09/05 10:15:39;;;;;;;2.83;1.73;;;;;26.20;99064.00;;;;4936086;29;20095;-68
2023/09/05 10:18:09;;;;;;;1.77;1.67;;;;;26.30;99061.00;;;;4935062;29;20103;-68
2023/09/05 10:20:39;;;;;;;2.40;2.20;;;;;26.40;99052.00;;;;4935866;29;20103;-68
2023/09/05 10:23:06;;;;;;;6.10;2.05;;;;;26.60;99048.00;;;;4936637;29;20130;-68
2023/09/05 10:25:35;;;;;;;2.92;2.13;;;;;26.70;99050.00;;;;4918915;29;20055;-68
2023/09/05 10:28:03;;;;;;;4.35;2.05;;;;;26.70;99041.00;;;;4935423;29;20047;-68
2023/09/05 10:30:40;;;;;;;2.15;1.90;;;;;26.70;99032.00;;;;4936214;29;20046;-68
2023/09/05 10:33:09;;;;;;;2.50;1.98;;;;;26.80;99023.00;;;;4935341;29;20047;-68
2023/09/05 10:35:36;;;;;;;2.50;2.10;;;;;26.90;99032.00;;;;4934414;29;20052;-68
2023/09/05 10:38:05;;;;;;;2.50;2.30;;;;;27.10;99024.00;;;;4935623;29;20432;-69
2023/09/05 10:40:36;;;;;;;3.40;1.85;;;;;27.10;99024.00;;;;4934818;29;20179;-69
2023/09/05 10:43:05;;;;;;;4.25;1.88;;;;;27.20;99021.00;;;;4934857;29;20056;-68
2023/09/05 10:45:37;;;;;;;2.50;2.17;;;;;27.20;99019.00;;;;4934186;29;20427;-70
2023/09/05 10:48:08;;;;;;;2.30;2.10;;;;;27.30;99012.00;;;;4936154;29;20051;-68
2023/09/05 10:51:07;;;;;;;2.10;1.90;;;;;27.20;99009.00;;;;4934717;29;20044;-68
2023/09/05 10:53:35;;;;;;;2.42;2.20;;;;;27.20;99015.00;;;;4935376;29;20059;-68
2023/09/05 10:56:02;;;;;;;2.95;2.08;;;;;27.30;99008.00;;;;4935834;29;20496;-69
2023/09/05 10:58:42;;;;;;;2.70;1.83;;;;;27.40;99014.00;;;;4934763;29;20075;-69
2023/09/05 11:01:32;;;;;;;5.38;2.38;;;;;27.50;99016.00;;;;4934362;29;20110;-68
2023/09/05 11:04:03;;;;;;;2.83;1.83;;;;;27.50;99018.00;;;;4935014;29;20051;-69
2023/09/05 11:06:30;;;;;;;2.35;1.63;;;;;27.50;99020.00;;;;4935710;29;20090;-68
2023/09/05 11:08:59;;;;;;;1.90;1.67;;;;;27.70;99016.00;;;;4934410;29;20082;-70
2023/09/05 11:11:25;;;;;;;1.88;1.67;;;;;27.90;99020.00;;;;4934059;29;20111;-70
2023/09/05 11:13:52;;;;;;;8.15;2.30;;;;;28.00;99016.00;;;;4933862;29;20709;-70
2023/09/05 11:16:19;;;;;;;2.28;1.90;;;;;27.90;99021.00;;;;4935299;29;20052;-69
2023/09/05 11:18:51;;;;;;;4.15;1.80;;;;;27.90;99018.00;;;;4935461;29;20082;-72
2023/09/05 11:21:22;;;;;;;2.47;1.83;;;;;27.90;99025.00;;;;4934142;29;20102;-68
2023/09/05 11:23:53;;;;;;;1.83;1.73;;;;;28.00;99016.00;;;;4933437;29;20469;-67
2023/09/05 11:26:21;;;;;;;2.13;1.95;;;;;27.90;99010.00;;;;4918303;29;20100;-69
2023/09/05 11:28:48;;;;;;;2.30;1.85;;;;;28.10;99017.00;;;;4935164;29;20427;-69
2023/09/05 11:31:15;;;;;;;3.63;2.05;;;;;28.10;99020.00;;;;4935017;29;20520;-69
2023/09/05 11:33:44;;;;;;;3.05;2.08;;;;;28.20;99018.00;;;;4917576;29;20079;-69
2023/09/05 11:36:11;;;;;;;2.25;1.80;;;;;28.40;99022.00;;;;4935127;29;20052;-71
2023/09/05 11:38:48;;;;;;;2.75;2.03;;;;;28.40;99025.00;;;;4935102;29;20054;-70
2023/09/05 11:41:16;;;;;;;2.03;1.70;;;;;28.30;99031.00;;;;4935017;29;20051;-70
2023/09/05 11:43:52;;;;;;;3.00;1.90;;;;;28.30;99028.00;;;;4934369;29;20058;-68
2023/09/05 11:46:20;;;;;;;2.05;1.80;;;;;28.40;99020.00;;;;4935040;29;20126;-68
2023/09/05 11:48:48;;;;;;;2.15;1.65;;;;;28.50;99023.00;;;;4935193;29;20127;-70
2023/09/05 11:51:16;;;;;;;3.97;1.67;;;;;28.50;99021.00;;;;4917905;29;20047;-70
2023/09/05 11:53:43;;;;;;;1.65;1.55;;;;;28.70;99013.00;;;;4934579;29;20052;-71
2023/09/05 11:56:11;;;;;;;2.03;1.77;;;;;28.70;99003.00;;;;4934857;29;20044;-71
2023/09/05 11:58:38;;;;;;;1.75;1.60;;;;;28.70;99000.00;;;;4933887;29;20052;-70
2023/09/05 12:01:04;;;;;;;3.00;2.08;;;;;28.80;99002.00;;;;4935399;29;20236;-72
2023/09/05 12:03:36;;;;;;;2.47;1.88;;;;;28.90;98998.00;;;;4934330;29;20115;-67
2023/09/05 12:06:02;;;;;;;4.22;1.85;;;;;29.00;98987.00;;;;4933688;29;20044;-68
2023/09/05 12:08:30;;;;;;;2.53;1.63;;;;;29.00;98986.00;;;;4933596;29;20070;-67
2023/09/05 12:11:03;;;;;;;2.20;2.00;;;;;29.00;98992.00;;;;4934973;29;20103;-68
2023/09/05 12:13:38;;;;;;;1.60;1.48;;;;;29.00;98989.00;;;;4932797;29;20048;-67
2023/09/05 12:16:09;;;;;;;3.10;1.73;;;;;29.10;98986.00;;;;4934349;29;20059;-65
2023/09/05 12:18:37;;;;;;;5.88;2.13;;;;;29.00;98978.00;;;;4933707;29;20051;-65
2023/09/05 12:21:08;;;;;;;4.32;2.75;;;;;29.10;98985.00;;;;4933574;29;20412;-65
2023/09/05 12:23:35;;;;;;;3.97;2.00;;;;;29.10;98986.00;;;;4932805;29;20054;-65